Time;durP1;ratioP1;P1;durP2;ratioP2;P2;SDS_P1;SDS_P2;PMS_P1;PMS_P2;Temp;Humidity;BMP_temperature;BMP_pressure;BME280_temperature;BME280_humidity;BME280_pressure;Samples;Min_cycle;Max_cycle;Signal;HPM_P1;HPM_P2
2022/01/08 00:00:07;;;;;;;20.33;12.00;;;;;;;;;;4996604;28;94111;-73
2022/01/08 00:02:37;;;;;;;19.17;12.07;;;;;;;;;;4998357;28;91546;-73
2022/01/08 00:05:04;;;;;;;28.65;12.60;;;;;;;;;;4996567;28;93665;-74
2022/01/08 00:07:30;;;;;;;22.85;12.02;;;;;;;;;;4996411;28;92259;-72
2022/01/08 00:09:57;;;;;;;18.83;11.80;;;;;;;;;;4994865;28;94749;-73
2022/01/08 00:12:24;;;;;;;17.92;12.05;;;;;;;;;;4996187;28;93110;-73
2022/01/08 00:14:50;;;;;;;20.67;13.23;;;;;;;;;;4995916;28;92255;-73
2022/01/08 00:17:16;;;;;;;18.48;11.38;;;;;;;;;;4996029;28;93571;-75
2022/01/08 00:19:43;;;;;;;29.38;12.68;;;;;;;;;;4995182;28;93137;-75
2022/01/08 00:22:11;;;;;;;21.63;12.48;;;;;;;;;;4996521;28;92307;-74
2022/01/08 00:24:37;;;;;;;20.42;11.82;;;;;;;;;;4997846;28;94751;-73
2022/01/08 00:27:04;;;;;;;22.77;12.82;;;;;;;;;;4996897;28;92480;-73
2022/01/08 00:29:31;;;;;;;18.77;12.07;;;;;;;;;;4995272;28;95613;-75
2022/01/08 00:31:57;;;;;;;22.23;13.07;;;;;;;;;;4996183;28;92899;-73
2022/01/08 00:34:23;;;;;;;25.58;13.02;;;;;;;;;;4993230;28;94808;-73
2022/01/08 00:36:50;;;;;;;22.10;12.55;;;;;;;;;;4996168;28;95359;-73
2022/01/08 00:39:16;;;;;;;22.48;12.40;;;;;;;;;;4995878;28;94111;-73
2022/01/08 00:41:42;;;;;;;22.42;14.00;;;;;;;;;;4995234;28;92338;-72
2022/01/08 00:44:09;;;;;;;21.52;13.30;;;;;;;;;;4996111;28;93175;-73
2022/01/08 00:46:35;;;;;;;25.30;13.27;;;;;;;;;;4998986;28;94433;-73
2022/01/08 00:49:02;;;;;;;21.55;12.77;;;;;;;;;;4995950;28;93527;-73
2022/01/08 00:51:29;;;;;;;24.20;12.85;;;;;;;;;;4996607;28;92815;-74
2022/01/08 00:53:55;;;;;;;18.40;13.18;;;;;;;;;;4996098;28;92291;-74
2022/01/08 00:56:21;;;;;;;21.67;12.55;;;;;;;;;;4996569;28;93490;-73
2022/01/08 00:58:48;;;;;;;20.52;12.82;;;;;;;;;;5001923;28;96025;-75
2022/01/08 01:01:14;;;;;;;24.13;13.48;;;;;;;;;;4999552;28;92299;-74
2022/01/08 01:03:40;;;;;;;22.17;12.98;;;;;;;;;;4997134;28;93457;-73
2022/01/08 01:06:07;;;;;;;23.17;12.70;;;;;;;;;;4998070;28;92482;-73
2022/01/08 01:08:34;;;;;;;19.67;11.85;;;;;;;;;;4998625;28;92176;-75
2022/01/08 01:11:00;;;;;;;20.70;13.18;;;;;;;;;;4995566;28;93275;-73
2022/01/08 01:13:26;;;;;;;20.42;12.77;;;;;;;;;;4995830;28;92528;-73
2022/01/08 01:15:53;;;;;;;20.17;12.70;;;;;;;;;;4996218;28;93864;-73
2022/01/08 01:18:19;;;;;;;21.75;13.38;;;;;;;;;;4994357;28;94009;-73
2022/01/08 01:20:46;;;;;;;22.75;13.63;;;;;;;;;;4995963;28;92192;-74
2022/01/08 01:23:17;;;;;;;23.58;12.85;;;;;;;;;;4994029;28;94795;-72
2022/01/08 01:25:51;;;;;;;24.35;13.85;;;;;;;;;;4994530;28;94019;-74
2022/01/08 01:41:08;;;;;;;22.17;11.63;;;;;;;;;;4998570;28;93390;-74
2022/01/08 01:47:11;;;;;;;16.48;12.10;;;;;;;;;;4998349;28;93707;-74
2022/01/08 01:49:39;;;;;;;16.33;12.23;;;;;;;;;;4997099;28;94701;-73
2022/01/08 01:52:08;;;;;;;19.95;11.88;;;;;;;;;;5001583;28;96118;-74
2022/01/08 01:54:35;;;;;;;18.52;10.82;;;;;;;;;;4998320;28;93086;-72
2022/01/08 01:57:03;;;;;;;19.02;10.20;;;;;;;;;;4997342;28;95438;-72
2022/01/08 01:59:30;;;;;;;15.25;9.63;;;;;;;;;;4998388;28;92649;-73
2022/01/08 02:01:57;;;;;;;17.85;9.73;;;;;;;;;;4999290;28;92206;-74
2022/01/08 02:04:24;;;;;;;25.77;10.30;;;;;;;;;;4999221;28;93319;-73
2022/01/08 02:06:51;;;;;;;16.77;9.75;;;;;;;;;;4998466;28;92973;-73
2022/01/08 02:09:17;;;;;;;17.30;8.52;;;;;;;;;;5009632;28;92356;-73
2022/01/08 02:11:56;;;;;;;12.43;9.48;;;;;;;;;;5039027;28;93496;-74
2022/01/08 02:14:22;;;;;;;12.63;8.90;;;;;;;;;;5040511;27;95944;-73
2022/01/08 02:16:49;;;;;;;13.02;9.23;;;;;;;;;;5038774;28;96041;-73
2022/01/08 02:19:15;;;;;;;17.52;9.32;;;;;;;;;;5039316;28;92858;-74
2022/01/08 02:21:46;;;;;;;13.77;9.55;;;;;;;;;;5039099;28;92200;-73
2022/01/08 02:24:12;;;;;;;19.02;9.90;;;;;;;;;;5039271;28;92693;-74
2022/01/08 02:26:39;;;;;;;16.80;9.77;;;;;;;;;;5038944;28;94169;-74
2022/01/08 02:29:09;;;;;;;21.95;10.32;;;;;;;;;;5038996;28;92275;-74
2022/01/08 02:31:35;;;;;;;20.58;10.07;;;;;;;;;;5038655;28;94038;-75
2022/01/08 02:34:02;;;;;;;20.48;10.30;;;;;;;;;;5037683;28;93050;-75
2022/01/08 02:36:28;;;;;;;16.73;10.00;;;;;;;;;;5041183;28;92320;-75
2022/01/08 02:38:56;;;;;;;31.92;11.45;;;;;;;;;;5036470;27;95357;-74
2022/01/08 02:41:22;;;;;;;16.83;9.88;;;;;;;;;;5038212;28;92189;-73
2022/01/08 02:43:53;;;;;;;19.90;10.50;;;;;;;;;;5038628;27;93477;-74
2022/01/08 02:46:20;;;;;;;15.10;10.05;;;;;;;;;;5037736;28;93865;-74
2022/01/08 02:48:47;;;;;;;13.68;10.48;;;;;;;;;;5037560;28;92305;-75
2022/01/08 02:51:13;;;;;;;20.25;10.13;;;;;;;;;;5037921;28;93091;-74
2022/01/08 02:53:39;;;;;;;21.50;10.43;;;;;;;;;;5036717;28;93678;-73
2022/01/08 02:56:06;;;;;;;13.77;10.35;;;;;;;;;;5038328;28;92914;-73
2022/01/08 02:58:32;;;;;;;18.25;11.35;;;;;;;;;;5040636;28;93334;-73
2022/01/08 03:00:59;;;;;;;21.00;10.77;;;;;;;;;;5037886;28;92313;-72
2022/01/08 03:03:25;;;;;;;21.27;11.07;;;;;;;;;;5036295;27;94643;-73
2022/01/08 03:05:52;;;;;;;18.45;11.32;;;;;;;;;;5037589;27;93460;-73
2022/01/08 03:08:19;;;;;;;28.10;11.82;;;;;;;;;;5037631;28;92138;-72
2022/01/08 03:10:51;;;;;;;15.07;10.68;;;;;;;;;;5037492;28;93302;-73
2022/01/08 03:13:17;;;;;;;18.48;11.65;;;;;;;;;;5037302;28;93582;-74
2022/01/08 03:15:43;;;;;;;21.67;11.68;;;;;;;;;;5037280;28;92360;-74
2022/01/08 03:18:10;;;;;;;18.80;11.90;;;;;;;;;;5037188;28;92992;-73
2022/01/08 03:20:45;;;;;;;22.92;12.07;;;;;;;;;;5039928;28;93496;-72
2022/01/08 03:23:15;;;;;;;16.50;11.77;;;;;;;;;;5037438;28;93407;-72
2022/01/08 03:25:43;;;;;;;19.42;11.80;;;;;;;;;;5037268;28;93127;-73
2022/01/08 03:28:10;;;;;;;19.50;12.75;;;;;;;;;;5035615;28;94759;-72
2022/01/08 03:30:38;;;;;;;21.55;11.88;;;;;;;;;;5036928;28;95778;-74
2022/01/08 03:33:04;;;;;;;22.85;11.63;;;;;;;;;;5037209;28;93478;-73
2022/01/08 03:35:30;;;;;;;14.23;11.10;;;;;;;;;;5037003;28;92206;-74
2022/01/08 03:37:57;;;;;;;22.33;13.55;;;;;;;;;;5036994;28;94525;-73
2022/01/08 03:40:23;;;;;;;20.20;11.25;;;;;;;;;;5036905;28;94099;-74
2022/01/08 03:42:49;;;;;;;19.67;11.38;;;;;;;;;;5039645;28;92293;-72
2022/01/08 03:45:16;;;;;;;18.55;11.40;;;;;;;;;;5037478;28;92756;-74
2022/01/08 03:50:15;;;;;;;16.83;11.32;;;;;;;;;;5036894;27;93184;-75
2022/01/08 03:52:41;;;;;;;14.38;10.95;;;;;;;;;;5035198;28;95839;-73
2022/01/08 03:55:07;;;;;;;21.98;12.88;;;;;;;;;;5036195;27;92429;-75
2022/01/08 03:57:34;;;;;;;25.30;12.40;;;;;;;;;;5036526;28;92973;-73
2022/01/08 04:00:00;;;;;;;18.17;11.30;;;;;;;;;;5036655;28;93493;-74
2022/01/08 04:02:26;;;;;;;19.17;11.45;;;;;;;;;;5038611;28;93053;-72
2022/01/08 04:04:53;;;;;;;14.45;10.35;;;;;;;;;;5036716;28;93913;-73
2022/01/08 04:07:19;;;;;;;15.70;10.38;;;;;;;;;;5036711;28;92301;-75
2022/01/08 04:09:46;;;;;;;20.63;11.32;;;;;;;;;;5036979;28;92972;-73
2022/01/08 04:12:16;;;;;;;17.65;10.75;;;;;;;;;;5036028;28;93173;-74
2022/01/08 04:15:03;;;;;;;16.10;10.77;;;;;;;;;;5036744;28;92385;-73
2022/01/08 04:17:29;;;;;;;20.15;11.65;;;;;;;;;;5034582;28;96888;-74
2022/01/08 04:19:56;;;;;;;16.60;12.15;;;;;;;;;;5036481;28;93614;-74
2022/01/08 04:22:24;;;;;;;17.65;11.88;;;;;;;;;;5036324;28;92298;-74
2022/01/08 04:24:50;;;;;;;18.55;11.40;;;;;;;;;;5039506;28;92954;-73
2022/01/08 04:27:17;;;;;;;16.00;10.90;;;;;;;;;;5036423;28;92309;-74
2022/01/08 04:29:43;;;;;;;15.82;10.82;;;;;;;;;;5036256;28;93397;-73
2022/01/08 04:32:09;;;;;;;18.50;11.35;;;;;;;;;;5036364;28;92968;-73
2022/01/08 04:34:36;;;;;;;16.80;11.40;;;;;;;;;;5036521;28;91456;-74
2022/01/08 04:37:03;;;;;;;22.45;12.45;;;;;;;;;;5035980;28;92242;-73
2022/01/08 04:39:29;;;;;;;21.48;11.90;;;;;;;;;;5036165;28;93195;-74
2022/01/08 04:41:56;;;;;;;21.60;12.30;;;;;;;;;;5034623;28;94684;-73
2022/01/08 04:44:22;;;;;;;21.02;13.30;;;;;;;;;;5018710;28;95660;-73
2022/01/08 04:46:48;;;;;;;18.02;11.77;;;;;;;;;;5039202;28;93602;-73
2022/01/08 04:49:15;;;;;;;25.30;13.10;;;;;;;;;;5036031;28;93332;-74
2022/01/08 04:51:41;;;;;;;20.00;12.98;;;;;;;;;;5035285;28;94048;-74
2022/01/08 04:54:07;;;;;;;18.63;13.05;;;;;;;;;;5036231;28;92355;-73
2022/01/08 04:56:34;;;;;;;23.60;12.43;;;;;;;;;;5035983;28;93494;-73
2022/01/08 04:59:00;;;;;;;19.73;13.07;;;;;;;;;;5036296;28;92742;-74
2022/01/08 05:01:26;;;;;;;19.40;13.13;;;;;;;;;;5036035;28;92343;-71
2022/01/08 05:03:53;;;;;;;24.73;13.35;;;;;;;;;;5035285;28;92770;-72
2022/01/08 05:06:19;;;;;;;26.15;13.65;;;;;;;;;;5034329;27;95421;-73
2022/01/08 05:08:46;;;;;;;22.35;13.48;;;;;;;;;;5042698;28;92340;-74
2022/01/08 05:11:12;;;;;;;18.77;12.43;;;;;;;;;;5039333;28;93613;-73
2022/01/08 05:13:39;;;;;;;21.45;12.80;;;;;;;;;;5039197;28;92281;-74
2022/01/08 05:16:05;;;;;;;23.38;13.45;;;;;;;;;;5039688;28;95358;-72
2022/01/08 05:18:33;;;;;;;19.48;12.18;;;;;;;;;;5039901;28;93057;-73
2022/01/08 05:21:12;;;;;;;20.58;13.25;;;;;;;;;;5040404;28;92232;-73
2022/01/08 05:23:39;;;;;;;18.35;12.18;;;;;;;;;;5042096;28;93594;-74
2022/01/08 05:26:05;;;;;;;21.98;12.77;;;;;;;;;;5039863;28;93652;-75
2022/01/08 05:28:31;;;;;;;20.50;12.02;;;;;;;;;;5039317;28;92375;-73
2022/01/08 05:30:58;;;;;;;19.17;11.95;;;;;;;;;;5040701;28;94662;-73
2022/01/08 05:33:24;;;;;;;21.52;12.45;;;;;;;;;;5037545;28;93402;-74
2022/01/08 05:35:50;;;;;;;18.85;13.02;;;;;;;;;;5038956;28;92560;-73
2022/01/08 05:38:17;;;;;;;20.38;12.95;;;;;;;;;;5037830;28;93732;-72
2022/01/08 05:40:43;;;;;;;19.63;11.55;;;;;;;;;;5038729;28;92314;-74
2022/01/08 05:43:09;;;;;;;18.33;10.98;;;;;;;;;;5038973;28;93844;-72
2022/01/08 05:45:36;;;;;;;24.02;11.05;;;;;;;;;;5038940;28;93556;-73
2022/01/08 05:48:02;;;;;;;23.27;10.15;;;;;;;;;;5038777;28;91583;-74
2022/01/08 05:50:29;;;;;;;19.65;9.32;;;;;;;;;;5038726;28;93101;-73
2022/01/08 05:52:55;;;;;;;11.63;8.73;;;;;;;;;;5042544;28;92934;-73
2022/01/08 05:55:21;;;;;;;16.00;10.75;;;;;;;;;;5036317;28;94597;-74
2022/01/08 05:57:48;;;;;;;16.05;9.05;;;;;;;;;;5038466;28;93565;-74
2022/01/08 06:00:14;;;;;;;17.92;8.80;;;;;;;;;;5039312;28;92295;-73
2022/01/08 06:02:40;;;;;;;18.45;9.18;;;;;;;;;;5038792;28;93438;-74
2022/01/08 06:05:07;;;;;;;15.10;8.70;;;;;;;;;;5039270;28;92216;-72
2022/01/08 06:07:34;;;;;;;23.80;8.75;;;;;;;;;;5039557;28;92457;-73
2022/01/08 06:10:00;;;;;;;20.35;9.10;;;;;;;;;;5039271;28;92305;-73
2022/01/08 06:12:27;;;;;;;18.88;9.02;;;;;;;;;;5042636;28;92802;-75
2022/01/08 06:14:53;;;;;;;11.20;8.10;;;;;;;;;;5039139;28;92611;-73
2022/01/08 06:17:20;;;;;;;26.13;9.60;;;;;;;;;;5037829;27;93965;-72
2022/01/08 06:19:46;;;;;;;16.30;9.02;;;;;;;;;;5037574;28;94615;-73
2022/01/08 06:22:12;;;;;;;21.80;9.20;;;;;;;;;;5039068;28;95296;-75
2022/01/08 06:24:39;;;;;;;17.70;9.80;;;;;;;;;;5039069;28;93101;-75
2022/01/08 06:27:06;;;;;;;18.98;9.88;;;;;;;;;;5038963;28;92426;-73
2022/01/08 06:29:37;;;;;;;23.80;9.68;;;;;;;;;;5039078;27;93300;-74
2022/01/08 06:32:03;;;;;;;22.98;9.65;;;;;;;;;;5038501;28;93733;-74
2022/01/08 06:34:30;;;;;;;13.40;9.40;;;;;;;;;;5042064;28;92217;-74
2022/01/08 06:36:56;;;;;;;15.48;10.25;;;;;;;;;;5039238;28;93251;-75
2022/01/08 06:39:22;;;;;;;17.45;10.18;;;;;;;;;;5038114;28;92328;-73
2022/01/08 06:41:49;;;;;;;28.98;10.00;;;;;;;;;;5036756;28;94543;-74
2022/01/08 06:44:15;;;;;;;22.23;10.45;;;;;;;;;;5036371;28;95382;-75
2022/01/08 06:46:42;;;;;;;13.32;9.10;;;;;;;;;;5037756;28;92371;-73
2022/01/08 06:49:08;;;;;;;19.70;10.38;;;;;;;;;;5038342;28;93589;-74
2022/01/08 06:51:35;;;;;;;21.08;9.52;;;;;;;;;;5037883;28;92980;-74
2022/01/08 06:54:01;;;;;;;16.13;9.27;;;;;;;;;;5038552;28;92218;-75
2022/01/08 06:56:27;;;;;;;22.98;9.50;;;;;;;;;;5041691;28;92242;-73
2022/01/08 06:58:55;;;;;;;14.70;8.65;;;;;;;;;;5037302;28;92285;-74
2022/01/08 07:01:21;;;;;;;23.10;8.25;;;;;;;;;;5038730;28;93907;-76
2022/01/08 07:03:47;;;;;;;13.52;7.53;;;;;;;;;;5038322;28;93545;-74
2022/01/08 07:06:14;;;;;;;18.90;7.72;;;;;;;;;;5038581;28;92404;-74
2022/01/08 07:08:40;;;;;;;25.35;9.10;;;;;;;;;;5036957;28;94823;-75
2022/01/08 07:11:07;;;;;;;13.35;7.15;;;;;;;;;;5036531;28;94175;-73
2022/01/08 07:13:33;;;;;;;16.70;8.07;;;;;;;;;;5037915;28;92351;-73
2022/01/08 07:15:59;;;;;;;24.10;8.05;;;;;;;;;;5037956;28;93785;-72
2022/01/08 07:18:26;;;;;;;24.23;7.95;;;;;;;;;;5040882;28;92707;-73
2022/01/08 07:20:54;;;;;;;17.45;6.80;;;;;;;;;;5038152;28;92327;-73
2022/01/08 07:23:21;;;;;;;17.75;6.93;;;;;;;;;;5037940;27;93081;-73
2022/01/08 07:25:47;;;;;;;19.48;7.65;;;;;;;;;;5038803;28;91540;-73
2022/01/08 07:28:15;;;;;;;12.63;7.20;;;;;;;;;;5037656;28;92372;-74
2022/01/08 07:30:41;;;;;;;12.65;7.47;;;;;;;;;;5036738;28;93453;-73
2022/01/08 07:33:07;;;;;;;13.88;8.45;;;;;;;;;;5036457;28;94582;-74
2022/01/08 07:35:34;;;;;;;20.20;9.68;;;;;;;;;;5037720;28;95184;-72
2022/01/08 07:38:00;;;;;;;19.35;9.57;;;;;;;;;;5036288;28;95095;-73
2022/01/08 07:40:26;;;;;;;21.08;10.10;;;;;;;;;;5039687;28;92437;-73
2022/01/08 07:42:53;;;;;;;24.98;10.02;;;;;;;;;;5036456;28;93836;-73
2022/01/08 07:45:19;;;;;;;19.42;10.23;;;;;;;;;;5037122;28;92237;-73
2022/01/08 07:47:46;;;;;;;16.13;9.23;;;;;;;;;;5036942;27;93261;-74
2022/01/08 07:50:13;;;;;;;19.40;9.73;;;;;;;;;;5037982;27;92715;-74
2022/01/08 07:52:40;;;;;;;25.98;9.50;;;;;;;;;;5037710;28;92283;-74
2022/01/08 07:55:07;;;;;;;19.23;9.77;;;;;;;;;;5037595;28;93867;-73
2022/01/08 07:57:33;;;;;;;21.35;10.05;;;;;;;;;;5035119;28;96018;-74
2022/01/08 07:59:59;;;;;;;17.90;9.95;;;;;;;;;;5035849;28;92258;-74
2022/01/08 08:02:26;;;;;;;17.98;9.38;;;;;;;;;;5040525;28;93440;-74
2022/01/08 08:04:52;;;;;;;22.23;10.90;;;;;;;;;;5037501;28;92365;-73
2022/01/08 08:07:25;;;;;;;20.23;10.18;;;;;;;;;;5036713;28;93441;-72
2022/01/08 08:09:51;;;;;;;18.73;9.65;;;;;;;;;;5035938;28;92685;-73
2022/01/08 08:12:18;;;;;;;22.40;9.52;;;;;;;;;;5037212;28;93530;-74
2022/01/08 08:14:44;;;;;;;16.08;9.63;;;;;;;;;;5037844;28;92442;-75
2022/01/08 08:17:10;;;;;;;22.88;11.38;;;;;;;;;;5036935;28;92950;-74
2022/01/08 08:19:37;;;;;;;19.60;10.45;;;;;;;;;;5035505;28;92434;-74
2022/01/08 08:22:03;;;;;;;27.27;11.10;;;;;;;;;;5038009;28;94537;-76
2022/01/08 08:24:29;;;;;;;28.33;11.30;;;;;;;;;;5035968;28;92352;-75
2022/01/08 08:26:56;;;;;;;22.67;11.10;;;;;;;;;;5036550;28;92972;-77
2022/01/08 08:29:22;;;;;;;24.20;12.27;;;;;;;;;;5036434;28;93348;-76
2022/01/08 08:31:49;;;;;;;22.70;12.05;;;;;;;;;;5036391;28;92405;-74
2022/01/08 08:34:15;;;;;;;22.05;12.45;;;;;;;;;;5036383;28;93541;-74
2022/01/08 08:36:42;;;;;;;23.77;12.60;;;;;;;;;;5036232;28;93828;-75
2022/01/08 08:39:08;;;;;;;24.77;13.38;;;;;;;;;;5036562;28;91672;-74
2022/01/08 08:41:34;;;;;;;31.70;13.30;;;;;;;;;;5038000;27;92299;-75
2022/01/08 08:44:01;;;;;;;25.33;13.98;;;;;;;;;;5042922;28;93740;-73
2022/01/08 08:46:27;;;;;;;29.73;14.75;;;;;;;;;;5038405;28;94589;-73
2022/01/08 08:48:53;;;;;;;25.23;15.77;;;;;;;;;;5039835;28;93762;-74
2022/01/08 08:51:20;;;;;;;24.48;14.70;;;;;;;;;;5039675;28;92284;-74
2022/01/08 08:53:46;;;;;;;24.08;14.18;;;;;;;;;;5039216;28;93542;-71
2022/01/08 08:56:13;;;;;;;33.83;14.88;;;;;;;;;;5039493;28;93707;-71
2022/01/08 08:58:39;;;;;;;30.58;15.57;;;;;;;;;;5039592;28;92366;-71
2022/01/08 09:01:05;;;;;;;23.63;15.75;;;;;;;;;;5039529;28;92728;-72
2022/01/08 09:03:32;;;;;;;28.48;15.88;;;;;;;;;;5040139;28;92837;-70
2022/01/08 09:05:58;;;;;;;25.15;15.98;;;;;;;;;;5042699;28;92381;-72
2022/01/08 09:08:25;;;;;;;34.85;16.45;;;;;;;;;;5038998;28;93956;-71
2022/01/08 09:10:51;;;;;;;24.60;14.45;;;;;;;;;;5037559;28;94632;-72
2022/01/08 09:13:17;;;;;;;28.50;15.70;;;;;;;;;;5039266;28;95859;-71
2022/01/08 09:15:44;;;;;;;27.85;16.63;;;;;;;;;;5039505;28;93559;-72
2022/01/08 09:18:10;;;;;;;24.98;16.95;;;;;;;;;;5039102;28;92187;-70
2022/01/08 09:20:37;;;;;;;24.92;17.35;;;;;;;;;;5038028;28;96560;-70
2022/01/08 09:23:04;;;;;;;28.50;17.65;;;;;;;;;;5038489;28;95558;-71
2022/01/08 09:25:30;;;;;;;32.28;17.90;;;;;;;;;;5039300;28;92252;-72
2022/01/08 09:27:57;;;;;;;34.75;18.90;;;;;;;;;;5042764;28;93922;-71
2022/01/08 09:30:24;;;;;;;32.67;18.40;;;;;;;;;;5039867;28;92365;-71
2022/01/08 09:32:51;;;;;;;31.67;17.85;;;;;;;;;;5043553;28;93613;-74
2022/01/08 09:35:18;;;;;;;30.80;18.35;;;;;;;;;;5042387;28;95530;-71
2022/01/08 09:37:44;;;;;;;38.85;18.52;;;;;;;;;;5041683;28;92335;-71
2022/01/08 09:40:13;;;;;;;26.13;16.92;;;;;;;;;;5039752;28;92894;-71
2022/01/08 09:42:41;;;;;;;31.88;18.20;;;;;;;;;;5039692;28;96076;-72
2022/01/08 09:45:07;;;;;;;34.95;18.92;;;;;;;;;;5039865;28;92233;-71
2022/01/08 09:47:34;;;;;;;34.38;17.83;;;;;;;;;;5038898;28;93411;-71
2022/01/08 09:50:02;;;;;;;29.67;18.60;;;;;;;;;;5037656;28;93235;-71
2022/01/08 09:52:29;;;;;;;25.77;18.27;;;;;;;;;;5038125;27;92791;-72
2022/01/08 09:54:55;;;;;;;29.92;18.88;;;;;;;;;;5038836;28;93616;-70
2022/01/08 09:57:21;;;;;;;29.02;17.58;;;;;;;;;;5038820;28;92281;-71
2022/01/08 09:59:48;;;;;;;30.08;18.15;;;;;;;;;;5037242;28;94619;-71
2022/01/08 10:02:19;;;;;;;31.15;20.00;;;;;;;;;;5038589;28;93179;-72
2022/01/08 10:04:45;;;;;;;27.30;18.25;;;;;;;;;;5038093;27;92621;-71
2022/01/08 10:07:18;;;;;;;29.02;18.90;;;;;;;;;;5038408;27;94833;-71
2022/01/08 10:10:12;;;;;;;29.88;17.38;;;;;;;;;;5025448;28;92985;-71
2022/01/08 10:12:47;;;;;;;33.58;17.63;;;;;;;;;;4987830;28;92389;-72
2022/01/08 10:18:13;;;;;;;31.30;18.10;;;;;;;;;;4998618;28;91637;-71
2022/01/08 10:20:40;;;;;;;28.30;17.85;;;;;;;;;;4998518;28;92803;-72
2022/01/08 10:23:12;;;;;;;27.98;17.38;;;;;;;;;;4998137;28;93623;-72
2022/01/08 10:25:53;;;;;;;31.42;18.23;;;;;;;;;;4995813;28;95440;-71
2022/01/08 10:28:41;;;;;;;26.48;17.13;;;;;;;;;;4998120;28;95318;-72
2022/01/08 10:31:10;;;;;;;27.08;16.80;;;;;;;;;;4987779;28;93084;-72
2022/01/08 10:33:37;;;;;;;27.02;18.13;;;;;;;;;;5001187;28;92293;-72
2022/01/08 10:36:04;;;;;;;30.45;18.25;;;;;;;;;;4996853;28;93243;-72
2022/01/08 10:38:30;;;;;;;30.92;17.42;;;;;;;;;;4997927;28;92468;-71
2022/01/08 10:40:58;;;;;;;28.33;17.92;;;;;;;;;;4997803;28;93429;-72
2022/01/08 10:43:32;;;;;;;26.52;18.02;;;;;;;;;;4998015;28;92833;-73
2022/01/08 10:46:11;;;;;;;29.33;19.25;;;;;;;;;;4997864;28;92313;-71
2022/01/08 10:48:41;;;;;;;33.80;19.33;;;;;;;;;;4997480;28;92377;-72
2022/01/08 10:51:27;;;;;;;33.30;19.88;;;;;;;;;;4995834;28;96008;-72
2022/01/08 10:53:57;;;;;;;31.42;18.88;;;;;;;;;;4996086;28;92852;-71
2022/01/08 10:56:25;;;;;;;27.67;18.50;;;;;;;;;;5000706;28;93509;-71
2022/01/08 10:58:55;;;;;;;30.27;19.17;;;;;;;;;;4997209;28;93722;-74
2022/01/08 11:01:41;;;;;;;21.05;15.40;;;;;;;;;;4997537;28;93419;-70
2022/01/08 11:04:08;;;;;;;27.13;14.93;;;;;;;;;;4997350;28;93687;-73
2022/01/08 11:06:53;;;;;;;24.73;14.55;;;;;;;;;;4997538;28;92378;-71
2022/01/08 11:09:20;;;;;;;26.83;15.27;;;;;;;;;;4997771;28;93489;-71
2022/01/08 11:11:50;;;;;;;24.83;13.85;;;;;;;;;;4998630;28;93802;-72
2022/01/08 11:17:05;;;;;;;29.40;13.68;;;;;;;;;;5015544;28;94610;-71
2022/01/08 11:19:33;;;;;;;19.98;13.18;;;;;;;;;;5020043;28;93157;-73
2022/01/08 11:22:01;;;;;;;21.02;12.60;;;;;;;;;;5016693;28;93832;-74
2022/01/08 11:24:28;;;;;;;19.85;12.85;;;;;;;;;;5017255;28;92432;-72
2022/01/08 11:26:57;;;;;;;19.30;13.15;;;;;;;;;;5016125;28;92380;-73
2022/01/08 11:29:24;;;;;;;23.13;14.48;;;;;;;;;;5016273;28;93590;-73
2022/01/08 11:31:55;;;;;;;23.75;13.45;;;;;;;;;;5016849;28;93689;-73
2022/01/08 11:34:28;;;;;;;22.02;12.82;;;;;;;;;;5017038;28;91584;-74
2022/01/08 11:36:55;;;;;;;20.90;13.82;;;;;;;;;;5017212;28;92646;-73
2022/01/08 11:39:26;;;;;;;22.95;14.00;;;;;;;;;;5016657;28;93463;-74
2022/01/08 11:41:53;;;;;;;22.02;13.05;;;;;;;;;;5018287;28;94895;-74
2022/01/08 11:44:20;;;;;;;22.02;13.45;;;;;;;;;;5016874;28;93673;-73
2022/01/08 11:46:47;;;;;;;22.95;12.65;;;;;;;;;;5016673;28;92212;-73
2022/01/08 11:49:14;;;;;;;25.77;15.55;;;;;;;;;;5016894;28;93206;-77
2022/01/08 11:51:40;;;;;;;27.58;17.23;;;;;;;;;;5016136;28;92977;-72
2022/01/08 11:54:07;;;;;;;21.85;14.57;;;;;;;;;;5015471;28;92513;-73
2022/01/08 11:56:34;;;;;;;25.30;13.77;;;;;;;;;;5016863;28;93358;-74
2022/01/08 11:59:11;;;;;;;21.95;13.93;;;;;;;;;;5017156;28;93077;-73
2022/01/08 12:01:38;;;;;;;25.35;14.10;;;;;;;;;;4993765;28;92363;-74
2022/01/08 12:04:05;;;;;;;24.95;14.55;;;;;;;;;;4997831;28;93884;-74
2022/01/08 12:06:34;;;;;;;20.50;12.95;;;;;;;;;;4992950;28;94778;-73
2022/01/08 12:09:20;;;;;;;24.00;13.55;;;;;;;;;;4994650;28;96147;-73
2022/01/08 12:11:46;;;;;;;26.38;14.50;;;;;;;;;;4994390;28;93217;-75
2022/01/08 12:14:17;;;;;;;22.38;13.85;;;;;;;;;;4994536;28;92452;-75
2022/01/08 12:16:44;;;;;;;19.85;12.10;;;;;;;;;;4976931;28;93888;-75
2022/01/08 12:19:38;;;;;;;23.85;13.40;;;;;;;;;;4994414;28;93959;-75
2022/01/08 12:22:16;;;;;;;24.75;12.90;;;;;;;;;;4992062;28;92457;-74
2022/01/08 12:24:43;;;;;;;19.98;12.10;;;;;;;;;;4997739;28;93519;-74
2022/01/08 12:27:19;;;;;;;21.92;12.80;;;;;;;;;;4994401;28;92337;-73
2022/01/08 12:29:45;;;;;;;25.15;12.70;;;;;;;;;;4994823;28;93594;-74
2022/01/08 12:35:07;;;;;;;21.92;12.32;;;;;;;;;;5015658;28;92467;-74
2022/01/08 12:37:38;;;;;;;23.15;13.13;;;;;;;;;;5008317;28;93006;-73
2022/01/08 12:40:05;;;;;;;21.70;11.82;;;;;;;;;;4998511;28;93110;-73
2022/01/08 12:42:32;;;;;;;26.13;12.38;;;;;;;;;;4996194;28;92262;-74
2022/01/08 12:45:02;;;;;;;18.52;12.35;;;;;;;;;;4996202;28;93341;-73
2022/01/08 12:47:37;;;;;;;20.33;12.02;;;;;;;;;;4998438;28;93872;-72
2022/01/08 12:50:20;;;;;;;15.25;11.35;;;;;;;;;;4996586;28;93750;-72
2022/01/08 12:53:05;;;;;;;19.17;10.10;;;;;;;;;;4995693;28;93119;-71
2022/01/08 12:55:32;;;;;;;23.10;10.95;;;;;;;;;;4996031;28;92396;-71
2022/01/08 12:57:59;;;;;;;17.65;10.98;;;;;;;;;;4994773;28;94714;-72
2022/01/08 13:00:26;;;;;;;17.55;11.48;;;;;;;;;;4995874;28;93144;-71
2022/01/08 13:02:52;;;;;;;17.33;10.60;;;;;;;;;;4996137;28;92123;-70
2022/01/08 13:05:19;;;;;;;19.08;8.77;;;;;;;;;;4995971;28;93252;-70
2022/01/08 13:07:51;;;;;;;22.10;11.02;;;;;;;;;;4996473;28;93513;-72
2022/01/08 13:10:19;;;;;;;23.00;10.57;;;;;;;;;;4998722;28;92293;-71
2022/01/08 13:13:00;;;;;;;14.20;9.13;;;;;;;;;;4994014;28;94951;-71
2022/01/08 13:15:33;;;;;;;18.37;9.07;;;;;;;;;;4997079;28;91838;-72
2022/01/08 13:18:15;;;;;;;20.10;8.85;;;;;;;;;;4996694;28;92342;-71
2022/01/08 13:20:43;;;;;;;18.70;9.35;;;;;;;;;;4996060;28;93534;-71
2022/01/08 13:23:10;;;;;;;17.73;9.45;;;;;;;;;;4993642;28;94837;-71
2022/01/08 13:25:36;;;;;;;14.73;8.95;;;;;;;;;;5011160;28;95740;-71
2022/01/08 13:28:03;;;;;;;21.13;7.97;;;;;;;;;;5004854;28;93920;-74
2022/01/08 13:30:29;;;;;;;12.57;7.32;;;;;;;;;;5016887;28;92321;-72
2022/01/08 13:33:04;;;;;;;12.88;7.25;;;;;;;;;;5022921;28;92768;-73
2022/01/08 13:35:30;;;;;;;17.60;7.22;;;;;;;;;;5023983;28;92411;-73
2022/01/08 13:37:57;;;;;;;9.20;6.82;;;;;;;;;;5025148;28;92931;-74
2022/01/08 13:40:26;;;;;;;10.18;7.60;;;;;;;;;;5022900;28;93985;-73
2022/01/08 13:42:53;;;;;;;10.30;7.22;;;;;;;;;;5023274;28;92249;-72
2022/01/08 13:45:21;;;;;;;13.27;6.75;;;;;;;;;;5019573;28;92990;-72
2022/01/08 13:47:51;;;;;;;8.30;5.82;;;;;;;;;;5017394;28;95913;-73
2022/01/08 13:50:27;;;;;;;11.50;6.80;;;;;;;;;;5018433;28;92977;-72
2022/01/08 13:53:02;;;;;;;11.68;7.25;;;;;;;;;;5019578;28;93643;-72
2022/01/08 13:55:45;;;;;;;9.23;7.20;;;;;;;;;;5022383;28;93844;-71
2022/01/08 13:58:12;;;;;;;12.98;5.68;;;;;;;;;;5019112;28;93332;-72
2022/01/08 14:00:40;;;;;;;11.10;6.22;;;;;;;;;;5018912;28;93505;-71
2022/01/08 14:03:26;;;;;;;8.95;5.32;;;;;;;;;;5019356;28;92281;-72
2022/01/08 14:05:54;;;;;;;9.43;5.93;;;;;;;;;;5002863;28;93428;-74
2022/01/08 14:08:20;;;;;;;6.85;4.75;;;;;;;;;;4999193;28;93676;-71
2022/01/08 14:10:48;;;;;;;8.25;5.32;;;;;;;;;;4998807;28;92552;-71
2022/01/08 14:13:18;;;;;;;6.85;5.57;;;;;;;;;;4996141;28;94630;-72
2022/01/08 14:15:46;;;;;;;7.15;4.43;;;;;;;;;;4998742;28;93884;-71
2022/01/08 14:18:24;;;;;;;5.97;3.92;;;;;;;;;;5001618;28;92315;-71
2022/01/08 14:20:51;;;;;;;6.28;4.68;;;;;;;;;;4998805;28;93665;-71
2022/01/08 14:23:24;;;;;;;9.52;5.60;;;;;;;;;;4998548;28;92316;-71
2022/01/08 14:25:51;;;;;;;7.88;4.88;;;;;;;;;;4999011;28;92909;-71
2022/01/08 14:28:26;;;;;;;7.53;4.22;;;;;;;;;;4999022;28;93385;-71
2022/01/08 14:31:08;;;;;;;7.40;4.47;;;;;;;;;;4999334;28;91610;-71
2022/01/08 14:33:35;;;;;;;4.63;3.95;;;;;;;;;;4998771;28;92375;-71
2022/01/08 14:36:01;;;;;;;7.45;4.22;;;;;;;;;;4998025;28;94061;-71
2022/01/08 14:38:29;;;;;;;6.40;4.30;;;;;;;;;;5014652;28;94809;-71
2022/01/08 14:40:56;;;;;;;7.70;4.40;;;;;;;;;;5018672;28;93931;-72
2022/01/08 14:43:23;;;;;;;7.72;4.53;;;;;;;;;;5018665;28;92311;-71
2022/01/08 14:45:50;;;;;;;5.93;3.80;;;;;;;;;;5017553;28;96440;-72
2022/01/08 14:48:22;;;;;;;3.10;2.80;;;;;;;;;;5018405;28;93554;-71
2022/01/08 14:50:49;;;;;;;7.93;4.93;;;;;;;;;;5015916;28;92358;-71
2022/01/08 14:53:17;;;;;;;8.77;4.50;;;;;;;;;;5007921;28;93411;-72